Time;durP1;ratioP1;P1;durP2;ratioP2;P2;SDS_P1;SDS_P2;PMS_P1;PMS_P2;Temp;Humidity;BMP_temperature;BMP_pressure;BME280_temperature;BME280_humidity;BME280_pressure;Samples;Min_cycle;Max_cycle;Signal;HPM_P1;HPM_P2
2023/05/24 00:02:18;;;;;;;;;7.25;6.00;;;;;12.10;64.24;102221.19;5014963;28;45459;-64
2023/05/24 00:04:44;;;;;;;;;6.00;4.00;;;;;11.98;64.42;102201.00;5014719;28;45607;-64
2023/05/24 00:07:09;;;;;;;;;9.67;5.33;;;;;12.11;64.53;102233.50;5014522;27;45533;-63
2023/05/24 00:09:35;;;;;;;;;8.00;4.00;;;;;12.08;64.76;102230.88;5014786;28;45938;-64
2023/05/24 00:12:00;;;;;;;;;7.00;5.00;;;;;11.76;64.61;102177.34;5015005;28;45361;-63
2023/05/24 00:14:26;;;;;;;;;5.33;4.67;;;;;11.78;65.08;102193.16;5014494;28;46428;-63
2023/05/24 00:16:51;;;;;;;;;5.67;4.33;;;;;12.02;64.83;102232.69;5014637;28;45379;-63
2023/05/24 00:19:21;;;;;;;;;7.00;5.33;;;;;11.96;65.31;102224.75;5014791;28;45821;-64
2023/05/24 00:21:47;;;;;;;;;6.67;5.00;;;;;11.90;65.17;102222.13;5014578;28;45595;-63
2023/05/24 00:24:13;;;;;;;;;8.25;4.25;;;;;11.87;65.32;102214.22;5014236;28;47443;-63
2023/05/24 00:26:39;;;;;;;;;8.50;6.00;;;;;11.99;65.50;102237.06;5014324;28;45804;-63
2023/05/24 00:29:04;;;;;;;;;9.00;4.25;;;;;11.96;65.41;102240.59;5014650;27;45470;-63
2023/05/24 00:31:30;;;;;;;;;7.33;5.00;;;;;11.95;65.34;102243.25;5014763;28;45599;-63
2023/05/24 00:33:55;;;;;;;;;7.67;4.00;;;;;11.94;65.51;102237.09;5014372;27;46350;-64
2023/05/24 00:36:20;;;;;;;;;7.25;6.75;;;;;11.83;65.64;102236.22;5014126;28;45229;-64
2023/05/24 00:38:46;;;;;;;;;8.33;5.67;;;;;11.87;65.78;102243.25;5014398;28;45308;-64
2023/05/24 00:41:12;;;;;;;;;10.50;5.50;;;;;11.75;65.90;102233.63;5014395;28;45368;-63
2023/05/24 00:43:37;;;;;;;;;6.67;5.00;;;;;11.83;65.94;102246.78;5014224;28;46707;-64
2023/05/24 00:46:02;;;;;;;;;6.67;5.00;;;;;11.87;65.80;102253.81;5026008;27;45425;-63
2023/05/24 00:48:27;;;;;;;;;9.75;5.75;;;;;11.77;65.74;102229.22;4994606;28;45335;-64
2023/05/24 00:50:53;;;;;;;;;6.00;6.00;;;;;11.75;66.07;102227.47;4994472;28;45413;-63
2023/05/24 00:53:19;;;;;;;;;11.00;5.33;;;;;11.79;66.08;102231.84;4994161;28;46099;-64
2023/05/24 00:55:45;;;;;;;;;7.67;6.00;;;;;11.76;66.54;102229.22;4994387;28;45324;-63
2023/05/24 00:58:11;;;;;;;;;10.00;5.00;;;;;11.70;66.24;102216.94;4994196;28;45269;-64
2023/05/24 01:00:36;;;;;;;;;6.00;4.00;;;;;11.73;66.25;102224.81;4994502;28;45391;-64
2023/05/24 01:03:01;;;;;;;;;4.67;4.67;;;;;11.78;66.36;102230.13;4994025;28;46175;-64
2023/05/24 01:05:27;;;;;;;;;7.00;5.00;;;;;11.74;66.28;102223.94;4993850;28;45396;-64
2023/05/24 01:08:21;;;;;;;;;8.00;3.00;;;;;11.75;65.96;102231.00;4994321;28;45675;-64
2023/05/24 01:10:55;;;;;;;;;9.00;7.00;;;;;11.67;66.22;102214.31;4994209;28;45343;-64
2023/05/24 01:13:32;;;;;;;;;6.25;5.00;;;;;11.67;66.18;102220.44;4993798;28;47390;-64
2023/05/24 01:16:06;;;;;;;;;8.00;6.67;;;;;11.71;66.45;102229.25;4993814;28;45404;-64
2023/05/24 01:18:37;;;;;;;;;5.00;5.00;;;;;11.73;66.65;102231.88;4993781;28;45491;-64
2023/05/24 01:21:12;;;;;;;;;6.00;5.00;;;;;11.69;66.68;102233.66;4994230;28;45525;-64
2023/05/24 01:23:46;;;;;;;;;11.67;6.67;;;;;11.42;66.62;102179.22;4993396;28;47534;-64
2023/05/24 01:26:21;;;;;;;;;11.00;6.00;;;;;11.67;66.75;102231.00;4993718;28;45216;-64
2023/05/24 01:28:47;;;;;;;;;10.00;5.33;;;;;11.63;66.81;102220.47;4993867;28;45536;-64
2023/05/24 01:31:14;;;;;;;;;9.33;6.00;;;;;11.59;66.95;102222.25;4993951;28;45541;-64
2023/05/24 01:33:43;;;;;;;;;8.00;5.67;;;;;11.53;66.87;102211.72;4993287;28;46194;-64
2023/05/24 01:36:09;;;;;;;;;8.67;7.33;;;;;11.54;66.99;102210.81;4994998;28;45322;-64
2023/05/24 01:38:36;;;;;;;;;7.67;6.00;;;;;11.57;66.95;102218.72;4996798;28;45424;-64
2023/05/24 01:41:14;;;;;;;;;10.33;7.67;;;;;11.62;66.75;102230.16;4996960;28;45555;-64
2023/05/24 01:43:47;;;;;;;;;7.00;4.00;;;;;11.60;66.83;102228.41;4996491;28;46645;-64
2023/05/24 01:46:29;;;;;;;;;10.00;6.33;;;;;11.55;67.01;102222.28;5001598;27;45331;-64
2023/05/24 01:49:06;;;;;;;;;13.00;8.00;;;;;11.56;67.49;102224.91;5016590;28;45386;-64
2023/05/24 01:51:47;;;;;;;;;10.67;9.33;;;;;11.56;67.18;102230.19;5016533;28;45483;-64
2023/05/24 01:54:13;;;;;;;;;11.33;8.00;;;;;11.47;67.49;102219.63;5016287;28;47242;-64
2023/05/24 01:56:41;;;;;;;;;7.00;6.00;;;;;11.32;67.61;102207.38;5016438;27;45360;-64
2023/05/24 01:59:07;;;;;;;;;7.00;6.00;;;;;11.30;67.75;102207.38;5016252;27;45244;-64
2023/05/24 02:01:33;;;;;;;;;8.00;5.00;;;;;11.40;67.78;102226.72;5016573;27;45889;-64
2023/05/24 02:03:59;;;;;;;;;6.00;6.00;;;;;11.34;67.88;102205.59;5016231;27;46523;-64
2023/05/24 02:06:24;;;;;;;;;8.00;6.00;;;;;11.44;67.49;102223.19;5015856;28;45512;-64
2023/05/24 02:08:52;;;;;;;;;7.75;6.00;;;;;11.32;67.83;102213.50;5016460;28;45292;-64
2023/05/24 02:11:17;;;;;;;;;7.00;5.75;;;;;11.35;67.89;102223.19;5016446;28;45533;-64
2023/05/24 02:13:42;;;;;;;;;9.00;6.00;;;;;11.30;68.13;102215.28;5016051;28;45414;-64
2023/05/24 02:16:09;;;;;;;;;8.67;5.00;;;;;11.26;68.19;102221.44;5016111;28;45332;-64
2023/05/24 02:18:34;;;;;;;;;7.00;5.00;;;;;11.26;68.43;102224.09;5016145;28;45391;-64
2023/05/24 02:21:01;;;;;;;;;6.25;4.50;;;;;11.18;68.39;102223.22;5016298;28;45327;-64
2023/05/24 02:23:26;;;;;;;;;8.33;6.00;;;;;11.15;68.70;102207.41;5015715;28;45531;-64
2023/05/24 02:25:52;;;;;;;;;7.25;6.00;;;;;11.22;68.04;102218.81;5015974;27;45603;-64
2023/05/24 02:28:17;;;;;;;;;2.00;2.00;;;;;11.14;68.76;102219.72;5016084;28;45342;-64
2023/05/24 02:30:43;;;;;;;;;4.67;4.67;;;;;11.05;68.73;102193.38;5016041;28;45507;-64
2023/05/24 02:33:10;;;;;;;;;7.67;5.33;;;;;11.04;68.87;102193.38;5015796;28;47409;-64
2023/05/24 02:35:35;;;;;;;;;9.33;5.00;;;;;11.03;69.03;102207.44;5015796;28;45490;-63
2023/05/24 02:38:02;;;;;;;;;6.67;5.67;;;;;10.96;68.79;102203.91;5015734;28;45484;-64
2023/05/24 02:40:27;;;;;;;;;10.00;7.00;;;;;10.99;69.17;102211.81;5016212;28;45340;-64
2023/05/24 02:42:53;;;;;;;;;15.33;7.33;;;;;11.03;68.88;102210.94;5015695;28;45402;-63
2023/05/24 02:45:18;;;;;;;;;9.00;7.00;;;;;11.05;68.97;102217.09;5015943;27;45450;-64
2023/05/24 02:47:45;;;;;;;;;11.67;6.00;;;;;10.95;69.18;102197.78;5014453;27;45340;-64
2023/05/24 02:50:10;;;;;;;;;4.67;4.67;;;;;10.93;69.16;102199.50;5015835;28;45426;-64
2023/05/24 02:52:36;;;;;;;;;8.33;6.00;;;;;10.92;69.13;102203.06;5015499;27;46374;-63
2023/05/24 02:55:01;;;;;;;;;9.67;8.00;;;;;10.95;69.41;102218.00;5015551;28;45457;-64
2023/05/24 02:57:27;;;;;;;;;12.67;8.67;;;;;10.87;69.12;102212.69;5015932;28;45428;-63
2023/05/24 02:59:53;;;;;;;;;11.00;7.67;;;;;10.85;69.64;102201.28;5015994;28;45205;-63
2023/05/24 03:02:18;;;;;;;;;12.00;10.00;;;;;10.98;69.35;102225.88;5015304;28;45651;-63
2023/05/24 03:04:43;;;;;;;;;8.33;6.33;;;;;10.92;69.33;102215.31;5015670;27;45367;-63
2023/05/24 03:07:09;;;;;;;;;7.00;6.00;;;;;10.96;69.20;102222.34;5015510;28;45209;-63
2023/05/24 03:09:35;;;;;;;;;7.00;6.75;;;;;10.73;69.39;102174.94;5020272;28;45667;-63
2023/05/24 03:12:00;;;;;;;;;10.67;6.00;;;;;10.96;69.38;102214.44;5023936;28;46652;-63
2023/05/24 03:14:25;;;;;;;;;11.00;9.00;;;;;10.96;69.35;102212.72;5015295;28;45395;-63
2023/05/24 03:16:51;;;;;;;;;14.00;8.33;;;;;10.97;69.35;102219.72;5015622;28;45243;-63
2023/05/24 03:19:16;;;;;;;;;11.00;9.00;;;;;10.84;69.38;102194.25;5015672;28;45442;-63
2023/05/24 03:21:42;;;;;;;;;13.00;10.00;;;;;10.81;69.58;102196.91;5015106;28;46298;-63
2023/05/24 03:24:08;;;;;;;;;8.33;7.00;;;;;10.89;69.71;102210.97;5015078;28;45405;-63
2023/05/24 03:26:33;;;;;;;;;11.00;9.00;;;;;10.93;69.64;102223.22;5015291;28;45331;-63
2023/05/24 03:28:59;;;;;;;;;8.33;6.67;;;;;10.89;69.83;102213.59;5015655;28;45359;-63
2023/05/24 03:31:25;;;;;;;;;17.00;15.00;;;;;10.79;69.74;102201.31;5015061;28;46138;-63
2023/05/24 03:33:51;;;;;;;;;10.00;8.33;;;;;10.63;69.94;102174.09;5015185;27;45770;-63
2023/05/24 03:36:16;;;;;;;;;12.00;7.00;;;;;10.75;69.84;102189.88;5015238;28;45486;-63
2023/05/24 03:38:41;;;;;;;;;13.00;10.67;;;;;10.87;69.87;102217.09;5015214;28;45487;-63
2023/05/24 03:41:07;;;;;;;;;9.33;9.00;;;;;10.87;69.55;102206.56;5015056;28;46299;-63
2023/05/24 03:43:32;;;;;;;;;79.75;70.25;;;;;10.51;69.59;102159.13;5014859;28;45428;-63
2023/05/24 03:45:58;;;;;;;;;30.67;19.33;;;;;10.59;70.11;102180.22;5014889;27;45284;-64
2023/05/24 03:48:23;;;;;;;;;16.67;14.33;;;;;10.71;70.14;102206.56;5015193;28;45367;-63
2023/05/24 03:50:48;;;;;;;;;11.67;10.00;;;;;10.82;69.87;102213.56;5014885;28;46566;-63
2023/05/24 03:53:14;;;;;;;;;16.67;11.67;;;;;10.82;70.26;102213.56;5014884;28;45413;-63
2023/05/24 03:55:39;;;;;;;;;14.00;11.00;;;;;10.76;69.97;102202.19;5015067;28;45424;-63
2023/05/24 03:58:05;;;;;;;;;12.00;9.00;;;;;10.73;70.04;102196.91;5014901;28;45395;-63
2023/05/24 04:00:30;;;;;;;;;12.00;8.33;;;;;10.65;70.42;102195.16;5014629;28;46022;-63
2023/05/24 04:02:55;;;;;;;;;12.33;10.00;;;;;10.71;70.44;102211.81;5014623;28;45384;-63
2023/05/24 04:05:25;;;;;;;;;11.00;9.00;;;;;10.52;70.52;102181.97;5014863;28;45232;-63
2023/05/24 04:07:51;;;;;;;;;10.00;8.00;;;;;10.61;70.97;102212.69;5014902;28;45462;-63
2023/05/24 04:10:16;;;;;;;;;9.00;6.33;;;;;10.63;70.92;102210.97;5014725;28;45349;-63
2023/05/24 04:12:41;;;;;;;;;18.00;7.33;;;;;10.65;70.34;102205.69;5014593;27;45257;-64
2023/05/24 04:15:07;;;;;;;;;11.00;8.33;;;;;10.65;70.75;102210.97;5014691;28;45348;-63
2023/05/24 04:17:33;;;;;;;;;12.67;10.00;;;;;10.62;70.68;102206.56;5014988;28;45469;-64
2023/05/24 04:19:59;;;;;;;;;15.67;9.33;;;;;10.64;70.88;102207.44;5014401;28;46594;-63
2023/05/24 04:22:25;;;;;;;;;11.33;9.33;;;;;10.70;70.63;102217.97;5014337;28;45594;-64
2023/05/24 04:24:50;;;;;;;;;11.67;9.33;;;;;10.25;71.02;102143.28;5014465;28;45897;-64
2023/05/24 04:27:16;;;;;;;;;15.75;9.50;;;;;10.63;70.87;102210.97;5014628;28;45505;-64
2023/05/24 04:29:44;;;;;;;;;12.67;10.00;;;;;10.69;70.81;102221.50;5014401;28;47511;-64
2023/05/24 04:32:09;;;;;;;;;18.67;13.67;;;;;10.58;71.28;102199.53;5014248;28;45301;-64
2023/05/24 04:34:35;;;;;;;;;14.67;10.33;;;;;10.65;70.79;102205.69;5014319;28;45452;-64
2023/05/24 04:37:01;;;;;;;;;14.67;9.00;;;;;10.77;70.86;102224.97;5014414;28;45323;-63
2023/05/24 04:39:28;;;;;;;;;16.00;11.00;;;;;10.83;70.56;102220.63;5014020;28;46240;-64
2023/05/24 04:41:56;;;;;;;;;14.00;11.67;;;;;10.84;70.53;102217.09;5014211;28;45331;-63
2023/05/24 04:44:23;;;;;;;;;12.33;11.67;;;;;10.92;70.40;102226.78;5013948;28;45426;-63
2023/05/24 04:46:48;;;;;;;;;15.67;10.33;;;;;10.97;70.59;102235.53;5014246;27;45303;-63
2023/05/24 04:49:13;;;;;;;;;40.00;33.00;;;;;10.86;70.57;102216.19;5013852;28;46350;-63
2023/05/24 04:51:39;;;;;;;;;14.00;12.00;;;;;10.95;70.54;102225.91;5014067;27;45304;-63
2023/05/24 04:54:07;;;;;;;;;17.33;11.67;;;;;10.93;70.44;102225.00;5014161;27;45459;-63
2023/05/24 04:56:34;;;;;;;;;13.33;11.00;;;;;10.95;70.96;102224.13;5014231;28;45635;-63
2023/05/24 04:58:59;;;;;;;;;14.00;12.00;;;;;11.02;70.88;102232.03;5013795;28;46275;-63
2023/05/24 05:01:25;;;;;;;;;11.67;10.67;;;;;11.04;70.85;102239.06;5013957;28;45171;-63
2023/05/24 05:03:50;;;;;;;;;11.00;11.00;;;;;11.10;71.35;102246.94;5014069;27;45446;-63
2023/05/24 05:06:15;;;;;;;;;14.33;11.00;;;;;11.13;70.84;102225.84;5014347;28;45325;-63
2023/05/24 05:08:41;;;;;;;;;11.33;9.67;;;;;11.00;70.52;102181.09;5013720;28;46551;-63
2023/05/24 05:11:06;;;;;;;;;10.33;8.33;;;;;11.73;70.03;102221.31;5014946;28;45282;-63
2023/05/24 05:13:31;;;;;;;;;10.67;9.33;;;;;12.28;67.67;102234.28;5017022;28;45533;-63
2023/05/24 05:15:57;;;;;;;;;15.00;11.33;;;;;12.24;67.02;102229.91;5016972;28;45387;-63
2023/05/24 05:18:22;;;;;;;;;16.33;12.33;;;;;12.15;67.71;102228.19;5016715;28;46558;-63
2023/05/24 05:20:48;;;;;;;;;13.67;11.67;;;;;12.11;67.97;102237.03;5016660;28;45367;-63
2023/05/24 05:23:13;;;;;;;;;16.00;9.00;;;;;12.06;67.88;102228.25;5016131;28;45463;-63
2023/05/24 05:25:38;;;;;;;;;14.00;12.00;;;;;12.04;68.00;102222.09;5016872;28;45486;-64
2023/05/24 05:28:03;;;;;;;;;14.33;13.33;;;;;12.08;68.19;102231.75;5016459;28;46492;-63
2023/05/24 05:30:29;;;;;;;;;16.67;12.67;;;;;12.10;68.05;102235.28;5016380;28;45590;-63
2023/05/24 05:32:54;;;;;;;;;17.33;13.00;;;;;12.08;67.99;102225.59;5016344;28;45372;-63
2023/05/24 05:35:20;;;;;;;;;18.00;13.33;;;;;12.12;68.11;102229.97;5016495;28;45369;-63
2023/05/24 05:37:45;;;;;;;;;13.00;11.67;;;;;12.04;67.71;102200.09;5016314;28;46101;-63
2023/05/24 05:40:11;;;;;;;;;14.00;10.67;;;;;12.31;67.58;102239.53;5016358;28;45439;-63
2023/05/24 05:42:36;;;;;;;;;12.67;11.67;;;;;12.39;66.79;102234.22;5016625;28;45273;-65
2023/05/24 05:45:02;;;;;;;;;14.67;12.67;;;;;12.46;67.00;102233.31;5016592;28;45392;-63
2023/05/24 05:47:27;;;;;;;;;12.67;11.67;;;;;12.53;66.64;102224.44;5015646;27;46212;-63
2023/05/24 05:49:52;;;;;;;;;16.00;12.00;;;;;12.58;66.58;102215.63;5016374;28;45459;-63
2023/05/24 05:52:18;;;;;;;;;15.67;11.33;;;;;12.75;66.57;102210.19;5016480;28;45741;-63
2023/05/24 05:54:43;;;;;;;;;15.00;12.00;;;;;12.84;65.84;102203.06;5016635;28;45439;-63
2023/05/24 05:57:10;;;;;;;;;17.67;13.00;;;;;12.88;65.95;102206.53;5015748;28;45410;-63
2023/05/24 05:59:35;;;;;;;;;12.00;10.33;;;;;13.05;65.74;102209.91;5016005;28;45405;-63
2023/05/24 06:02:02;;;;;;;;;27.00;24.00;;;;;12.83;64.99;102155.50;5016034;28;45445;-63
2023/05/24 06:04:27;;;;;;;;;14.00;11.00;;;;;13.09;64.69;102194.91;5016545;27;45495;-65
2023/05/24 06:06:53;;;;;;;;;17.00;13.33;;;;;12.89;65.21;102150.13;5016212;28;46394;-63
2023/05/24 06:09:18;;;;;;;;;13.67;11.67;;;;;13.20;64.83;102192.13;5017314;27;45318;-63
2023/05/24 06:11:44;;;;;;;;;21.00;12.00;;;;;13.15;64.85;102180.75;5016254;28;45801;-63
2023/05/24 06:14:11;;;;;;;;;11.00;10.00;;;;;13.12;64.99;102176.34;5016499;28;45339;-63
2023/05/24 06:16:40;;;;;;;;;14.00;9.00;;;;;13.16;64.95;102175.44;5015834;28;46468;-63
2023/05/24 06:19:06;;;;;;;;;15.67;11.00;;;;;13.42;63.81;102203.41;5016128;28;45501;-63
2023/05/24 06:21:32;;;;;;;;;12.67;9.33;;;;;13.39;63.45;102200.81;5016069;28;45445;-64
2023/05/24 06:23:58;;;;;;;;;11.67;11.67;;;;;13.51;63.77;102205.94;5016161;28;45626;-63
2023/05/24 06:26:25;;;;;;;;;15.67;11.33;;;;;13.61;63.85;102193.47;5016016;28;46669;-63
2023/05/24 06:28:51;;;;;;;;;8.67;8.33;;;;;13.76;62.49;102197.69;5015483;28;45304;-63
2023/05/24 06:31:17;;;;;;;;;11.00;10.00;;;;;13.78;61.75;102198.53;5016191;27;45388;-63
2023/05/24 06:33:43;;;;;;;;;14.67;10.33;;;;;13.57;61.91;102170.59;5016049;28;45302;-63
2023/05/24 06:36:08;;;;;;;;;12.33;8.00;;;;;13.69;62.03;102201.31;5015734;28;45900;-63
2023/05/24 06:38:34;;;;;;;;;15.00;10.33;;;;;13.81;61.70;102222.38;5015847;28;45358;-63
2023/05/24 06:41:00;;;;;;;;;16.00;11.33;;;;;13.83;61.45;102228.50;5015788;28;45388;-63
2023/05/24 06:43:25;;;;;;;;;11.33;10.00;;;;;13.83;61.51;102209.97;5016063;27;45360;-63
2023/05/24 06:45:50;;;;;;;;;13.00;10.00;;;;;13.93;60.90;102223.97;5015488;28;45649;-63
2023/05/24 06:48:16;;;;;;;;;10.67;9.67;;;;;13.94;61.21;102204.53;5015710;28;45247;-63
2023/05/24 06:50:41;;;;;;;;;8.67;7.33;;;;;14.01;61.45;102205.31;5016063;27;45857;-63
2023/05/24 06:53:07;;;;;;;;;11.33;10.00;;;;;14.07;61.21;102203.47;5015992;28;45519;-63
2023/05/24 06:55:32;;;;;;;;;9.00;6.67;;;;;14.19;60.75;102213.03;5015665;28;46866;-64
2023/05/24 06:57:57;;;;;;;;;19.67;11.33;;;;;14.23;59.97;102220.03;5015545;28;45367;-64
2023/05/24 07:00:23;;;;;;;;;16.67;12.00;;;;;14.25;60.13;102209.41;5015751;28;45442;-63
2023/05/24 07:02:48;;;;;;;;;8.00;7.00;;;;;14.42;59.30;102203.84;5015947;28;45404;-64
2023/05/24 07:05:14;;;;;;;;;16.00;10.00;;;;;14.54;59.04;102206.31;5015431;27;46498;-64
2023/05/24 07:07:41;;;;;;;;;17.33;8.33;;;;;14.74;58.77;102223.69;5015437;28;45434;-63
2023/05/24 07:10:08;;;;;;;;;8.00;7.00;;;;;14.83;58.29;102220.00;5015400;28;45324;-63
2023/05/24 07:12:33;;;;;;;;;8.00;6.67;;;;;14.98;57.61;102223.28;5015591;28;45472;-63
2023/05/24 07:14:58;;;;;;;;;11.33;6.00;;;;;15.10;57.20;102218.66;5015433;27;46428;-63
2023/05/24 07:17:24;;;;;;;;;5.33;5.00;;;;;15.57;55.92;102214.25;5015281;28;45395;-63
2023/05/24 07:19:50;;;;;;;;;8.25;5.00;;;;;16.20;53.69;102222.66;5015736;28;45357;-63
2023/05/24 07:22:15;;;;;;;;;0.00;0.00;;;;;16.24;53.75;102236.78;5015640;28;45292;-63
2023/05/24 07:24:41;;;;;;;;;8.25;6.00;;;;;16.13;53.42;102223.72;4997066;28;45757;-64
2023/05/24 07:27:06;;;;;;;;;10.25;7.00;;;;;16.01;54.35;102235.50;5015359;28;45302;-63
2023/05/24 07:29:31;;;;;;;;;11.00;6.50;;;;;15.82;54.25;102235.00;5015358;28;45609;-63
2023/05/24 07:31:57;;;;;;;;;9.33;5.00;;;;;15.71;54.79;102232.53;5015599;28;45518;-63
2023/05/24 07:34:26;;;;;;;;;17.67;14.33;;;;;15.67;55.37;102244.16;5014164;28;45996;-63
2023/05/24 07:36:51;;;;;;;;;6.67;4.00;;;;;15.62;54.56;102259.28;5015006;28;45426;-63
2023/05/24 07:39:17;;;;;;;;;4.50;4.00;;;;;15.54;54.54;102245.25;5015134;28;45240;-63
2023/05/24 07:41:43;;;;;;;;;5.00;4.00;;;;;15.60;54.76;102251.34;5015347;28;45393;-63
2023/05/24 07:44:09;;;;;;;;;11.00;6.33;;;;;15.69;54.96;102246.78;5014578;28;45435;-64
2023/05/24 07:46:34;;;;;;;;;7.00;5.50;;;;;15.87;54.57;102243.75;5015027;27;45427;-64
2023/05/24 07:48:59;;;;;;;;;9.00;6.00;;;;;15.88;54.80;102250.81;5014940;28;45350;-64
2023/05/24 07:51:25;;;;;;;;;8.67;7.00;;;;;15.86;55.25;102249.09;5015402;28;45349;-64
2023/05/24 07:53:51;;;;;;;;;11.00;8.33;;;;;15.81;54.71;102251.84;5014723;28;47139;-64
2023/05/24 07:56:17;;;;;;;;;7.33;6.67;;;;;15.76;54.79;102249.25;5014804;28;45282;-64
2023/05/24 07:58:45;;;;;;;;;8.33;6.67;;;;;15.72;54.37;102231.63;5015027;28;45487;-64
2023/05/24 08:01:11;;;;;;;;;8.33;8.00;;;;;16.01;54.59;102236.34;5015083;28;45363;-64
2023/05/24 08:03:38;;;;;;;;;11.33;8.00;;;;;16.33;53.47;102237.41;5014703;28;47490;-64
2023/05/24 08:06:04;;;;;;;;;11.50;4.75;;;;;16.27;53.09;102240.22;5014750;27;45280;-63
2023/05/24 08:08:29;;;;;;;;;16.00;14.33;;;;;16.29;53.04;102240.19;5014587;28;45435;-64
2023/05/24 08:10:55;;;;;;;;;7.50;6.00;;;;;16.39;52.71;102228.44;5014891;27;45430;-64
2023/05/24 08:13:21;;;;;;;;;8.75;4.75;;;;;16.63;51.94;102221.66;5014395;28;45518;-64
2023/05/24 08:15:46;;;;;;;;;5.75;5.00;;;;;16.92;51.08;102232.50;5014788;28;45245;-64
2023/05/24 08:18:11;;;;;;;;;9.50;6.00;;;;;17.15;50.36;102230.16;5014641;28;45469;-64
2023/05/24 08:20:37;;;;;;;;;29.00;27.33;;;;;17.30;48.90;102230.66;5014709;28;45429;-64
2023/05/24 08:23:02;;;;;;;;;9.33;8.00;;;;;17.47;49.91;102216.84;5014562;28;46188;-64
2023/05/24 08:25:28;;;;;;;;;9.75;6.25;;;;;17.67;49.44;102222.47;5014365;27;45424;-64
2023/05/24 08:27:54;;;;;;;;;12.33;10.00;;;;;17.88;49.59;102217.47;5014681;28;45822;-64
2023/05/24 08:30:19;;;;;;;;;6.75;5.00;;;;;17.92;49.14;102225.34;5014746;28;45342;-64
2023/05/24 08:32:45;;;;;;;;;5.25;4.25;;;;;17.83;48.13;102228.22;5014241;28;45368;-64
2023/05/24 08:35:10;;;;;;;;;4.00;4.00;;;;;17.95;47.85;102229.72;5014225;28;45498;-64
2023/05/24 08:37:36;;;;;;;;;6.00;5.75;;;;;18.05;46.96;102233.84;5014518;28;45416;-64
2023/05/24 08:40:02;;;;;;;;;9.67;6.33;;;;;18.18;47.02;102241.47;5014552;28;45358;-64
2023/05/24 08:42:29;;;;;;;;;6.67;5.33;;;;;18.08;46.82;102201.78;5014919;28;46495;-64
2023/05/24 08:45:03;;;;;;;;;4.00;4.00;;;;;18.35;46.43;102239.13;5014069;28;45218;-64
2023/05/24 08:47:30;;;;;;;;;11.00;8.00;;;;;18.32;45.08;102233.91;5017249;28;45557;-63
2023/05/24 08:49:55;;;;;;;;;11.00;8.67;;;;;18.23;45.13;102223.53;5017550;28;45307;-64
2023/05/24 08:52:22;;;;;;;;;5.75;4.00;;;;;18.34;45.39;102224.09;5016936;28;46608;-64
2023/05/24 08:54:48;;;;;;;;;6.00;4.25;;;;;18.42;45.11;102223.81;5016932;28;45400;-64
2023/05/24 08:57:15;;;;;;;;;4.67;4.33;;;;;18.66;43.95;102227.50;5017222;28;45527;-64
2023/05/24 08:59:41;;;;;;;;;5.00;4.00;;;;;18.84;42.86;102223.34;5017655;27;45324;-64
2023/05/24 09:02:10;;;;;;;;;4.33;3.33;;;;;19.08;41.85;102228.78;5016942;28;46268;-64
2023/05/24 09:04:38;;;;;;;;;4.33;3.00;;;;;19.29;40.29;102225.34;5016823;28;45331;-63
2023/05/24 09:07:06;;;;;;;;;5.00;5.00;;;;;19.30;41.29;102227.09;5017156;28;45403;-64
2023/05/24 09:09:34;;;;;;;;;6.00;4.33;;;;;19.29;41.23;102217.34;5016993;28;45373;-64
2023/05/24 09:12:04;;;;;;;;;7.33;6.00;;;;;19.29;43.69;102222.69;5016652;28;46553;-64
2023/05/24 09:14:29;;;;;;;;;5.67;5.00;;;;;19.35;42.75;102218.06;5016842;27;45360;-64
2023/05/24 09:16:55;;;;;;;;;4.67;4.67;;;;;19.47;43.38;102214.94;5016957;28;45473;-64
2023/05/24 09:19:21;;;;;;;;;7.67;6.00;;;;;19.52;43.49;102212.97;5017233;28;45423;-64
2023/05/24 09:21:48;;;;;;;;;14.33;6.33;;;;;19.46;42.24;102207.84;5018044;27;46249;-64
2023/05/24 09:24:14;;;;;;;;;7.33;7.00;;;;;19.76;42.75;102221.00;5016518;28;45373;-64
2023/05/24 09:26:40;;;;;;;;;7.33;5.00;;;;;19.97;42.36;102200.63;5017090;27;45277;-64
2023/05/24 09:29:07;;;;;;;;;10.33;8.00;;;;;20.34;41.38;102209.84;5016904;28;45229;-64
2023/05/24 09:31:34;;;;;;;;;8.67;6.67;;;;;20.55;41.22;102212.56;5016617;27;47704;-63
2023/05/24 09:34:00;;;;;;;;;12.33;8.67;;;;;20.78;41.67;102207.19;5016586;28;45481;-64
2023/05/24 09:36:28;;;;;;;;;12.00;7.00;;;;;21.34;41.26;102202.09;5016684;28;45407;-64
2023/05/24 09:39:08;;;;;;;;;11.33;8.33;;;;;22.58;39.37;102195.38;5016754;28;45359;-64
2023/05/24 09:41:35;;;;;;;;;12.33;6.00;;;;;23.69;37.82;102199.44;5016552;28;46211;-64
2023/05/24 09:44:00;;;;;;;;;8.67;6.33;;;;;24.06;36.12;102165.09;5016339;28;45428;-64
2023/05/24 09:46:27;;;;;;;;;55.67;44.00;;;;;24.87;35.63;102203.56;5016565;27;45411;-64
2023/05/24 09:48:57;;;;;;;;;5.33;5.33;;;;;25.03;36.04;102194.41;5016790;28;45403;-64
2023/05/24 09:51:23;;;;;;;;;10.67;7.00;;;;;25.03;34.12;102212.44;5016168;28;46423;-64
2023/05/24 09:53:51;;;;;;;;;7.00;6.00;;;;;24.72;34.63;102213.41;5016243;28;45328;-64
2023/05/24 09:56:17;;;;;;;;;7.00;5.33;;;;;24.27;33.97;102214.16;5015800;28;45376;-64
2023/05/24 09:58:44;;;;;;;;;6.33;5.67;;;;;23.81;32.99;102214.03;5016515;27;45352;-64
2023/05/24 10:01:11;;;;;;;;;7.67;5.67;;;;;23.31;34.09;102218.53;5015722;28;45696;-64
2023/05/24 10:03:36;;;;;;;;;6.33;4.67;;;;;22.92;34.67;102223.16;5016159;28;45285;-64
2023/05/24 10:06:06;;;;;;;;;6.33;5.33;;;;;22.56;34.79;102207.97;5017340;27;45269;-64
2023/05/24 10:08:34;;;;;;;;;7.67;4.33;;;;;22.23;34.93;102205.13;5016390;28;45356;-64
2023/05/24 10:11:02;;;;;;;;;9.67;7.00;;;;;22.05;35.50;102204.19;5015705;28;46394;-64
2023/05/24 10:13:28;;;;;;;;;10.67;8.00;;;;;21.89;36.59;102209.44;5015540;28;45459;-64
2023/05/24 10:15:53;;;;;;;;;6.67;6.67;;;;;21.71;36.45;102206.66;5016073;28;45455;-64
2023/05/24 10:18:19;;;;;;;;;7.00;5.00;;;;;21.65;36.58;102216.78;5016290;28;45316;-64
2023/05/24 10:20:44;;;;;;;;;5.33;5.33;;;;;21.58;35.93;102204.59;5015992;28;47390;-64
2023/05/24 10:23:13;;;;;;;;;22.00;21.00;;;;;21.53;36.44;102208.38;5017137;27;45361;-64
2023/05/24 10:25:45;;;;;;;;;6.67;5.00;;;;;21.41;36.06;102192.81;5015874;28;45455;-64
2023/05/24 10:28:14;;;;;;;;;6.33;6.33;;;;;21.48;35.35;102196.09;5016242;28;45339;-64
2023/05/24 10:30:49;;;;;;;;;4.33;4.00;;;;;21.49;35.26;102197.81;5015830;28;45700;-64
2023/05/24 10:33:17;;;;;;;;;5.00;4.00;;;;;21.50;34.77;102203.13;5015853;28;45335;-64
2023/05/24 10:35:43;;;;;;;;;4.00;4.00;;;;;21.54;34.45;102199.41;5016178;28;45382;-64
2023/05/24 10:38:09;;;;;;;;;6.33;6.33;;;;;21.61;34.55;102204.47;5016194;27;45328;-64
2023/05/24 10:40:40;;;;;;;;;8.00;5.00;;;;;21.66;35.39;102200.63;5015669;28;46162;-64
2023/05/24 10:43:07;;;;;;;;;7.67;6.33;;;;;21.88;34.58;102196.94;5015846;28;45427;-64
2023/05/24 10:45:35;;;;;;;;;4.00;4.00;;;;;22.26;34.54;102194.22;5015774;27;45391;-64
2023/05/24 10:48:23;;;;;;;;;6.33;5.67;;;;;22.57;34.65;102182.03;5015869;27;45621;-64
2023/05/24 10:50:49;;;;;;;;;7.00;5.67;;;;;22.65;34.87;102179.78;5009028;28;46572;-64
2023/05/24 10:53:21;;;;;;;;;6.00;5.00;;;;;22.52;34.24;102176.00;5015604;28;45347;-64
2023/05/24 10:56:02;;;;;;;;;4.00;2.33;;;;;22.45;35.50;102182.63;5015650;28;45434;-64
2023/05/24 10:58:46;;;;;;;;;6.33;5.00;;;;;22.39;35.75;102192.72;5015765;28;45400;-64
2023/05/24 11:01:25;;;;;;;;;5.67;5.67;;;;;22.38;35.64;102182.94;5015516;27;46395;-64
2023/05/24 11:03:51;;;;;;;;;9.00;7.00;;;;;22.40;34.76;102169.44;5015435;28;45386;-64
2023/05/24 11:06:17;;;;;;;;;8.33;5.00;;;;;22.54;34.90;102183.03;5015539;28;45439;-64
2023/05/24 11:08:43;;;;;;;;;9.00;6.00;;;;;22.40;35.78;102166.75;5014565;28;45415;-64
2023/05/24 11:11:08;;;;;;;;;6.00;5.67;;;;;22.38;35.57;102174.88;5015191;28;46113;-64
2023/05/24 11:13:35;;;;;;;;;7.00;5.00;;;;;22.26;33.69;102173.66;5015338;28;45491;-64
2023/05/24 11:16:01;;;;;;;;;3.67;3.00;;;;;22.10;34.11;102175.31;5015593;28;45205;-64
2023/05/24 11:18:26;;;;;;;;;5.67;4.00;;;;;22.07;33.66;102172.78;5015806;27;45221;-64